createdAt,value
2022-08-23T00:01:39.107Z,0.70
2022-08-23T00:03:42.495Z,0.47
2022-08-23T00:05:44.526Z,6.78
2022-08-23T00:07:46.190Z,0.65
2022-08-23T00:09:47.712Z,0.47
2022-08-23T00:12:02.630Z,0.15
2022-08-23T00:14:08.538Z,0.60
2022-08-23T00:16:10.085Z,0.75
2022-08-23T00:18:11.647Z,0.35
2022-08-23T00:20:19.739Z,0.70
2022-08-23T00:22:21.435Z,0.52
2022-08-23T00:24:24.248Z,0.47
2022-08-23T00:26:26.089Z,0.65
2022-08-23T00:28:27.684Z,0.10
2022-08-23T00:30:29.235Z,0.65
2022-08-23T00:32:33.730Z,2.58
2022-08-23T00:34:36.929Z,0.25
2022-08-23T00:36:39.450Z,0.35
2022-08-23T00:38:42.084Z,0.43
2022-08-23T00:40:45.640Z,0.08
2022-08-23T00:43:10.845Z,0.30
2022-08-23T00:45:32.738Z,0.40
2022-08-23T00:47:40.401Z,1.42
2022-08-23T00:49:44.501Z,39.30
2022-08-23T00:51:54.307Z,0.70
2022-08-23T00:53:59.417Z,1.92
2022-08-23T00:56:03.643Z,3.03
2022-08-23T00:58:05.378Z,5.97
2022-08-23T01:00:09.087Z,1.48
2022-08-23T01:02:11.466Z,0.65
2022-08-23T01:04:13.685Z,2.03
2022-08-23T01:06:18.194Z,1.35
2022-08-23T01:08:19.924Z,0.47
2022-08-23T01:10:42.096Z,1.38
2022-08-23T01:12:48.856Z,1.35
2022-08-23T01:15:00.629Z,0.98
2022-08-23T01:17:08.339Z,7.70
2022-08-23T01:19:15.614Z,0.50
2022-08-23T01:21:23.674Z,2.33
2022-08-23T01:23:36.577Z,2.47
2022-08-23T01:25:38.335Z,1.13
2022-08-23T01:27:40.227Z,0.68
2022-08-23T01:29:42.468Z,22.77
2022-08-23T01:31:44.248Z,0.77
2022-08-23T01:33:48.200Z,1.40
2022-08-23T01:35:53.481Z,1.42
2022-08-23T01:37:55.196Z,0.30
2022-08-23T01:39:56.888Z,0.10
2022-08-23T01:41:58.880Z,0.28
2022-08-23T01:44:00.685Z,2.45
2022-08-23T01:46:10.851Z,0.40
2022-08-23T01:48:13.691Z,0.65
2022-08-23T01:50:15.363Z,6.65
2022-08-23T01:52:17.329Z,0.17
2022-08-23T01:54:18.889Z,0.55
2022-08-23T01:56:29.506Z,6.70
2022-08-23T01:58:40.107Z,0.00
2022-08-23T02:00:42.745Z,0.55
2022-08-23T02:02:45.473Z,0.38
2022-08-23T02:04:47.219Z,0.35
2022-08-23T02:06:48.775Z,4.28
2022-08-23T02:09:03.411Z,5.10
2022-08-23T02:11:15.246Z,0.63
2022-08-23T02:13:17.358Z,1.45
2022-08-23T02:15:19.085Z,2.03
2022-08-23T02:17:20.728Z,0.30
2022-08-23T02:19:22.568Z,2.72
2022-08-23T02:21:24.589Z,1.75
2022-08-23T02:23:26.903Z,3.40
2022-08-23T02:25:29.058Z,0.30
2022-08-23T02:27:30.624Z,1.15
2022-08-23T02:29:35.186Z,4.22
2022-08-23T02:31:41.492Z,0.32
2022-08-23T02:33:43.750Z,1.30
2022-08-23T02:35:45.775Z,0.50
2022-08-23T02:37:47.368Z,1.38
2022-08-23T02:39:49.065Z,0.55
2022-08-23T02:41:51.106Z,0.43
2022-08-23T02:43:53.348Z,0.05
2022-08-23T02:45:54.892Z,1.08
2022-08-23T02:47:57.270Z,0.70
2022-08-23T02:49:58.861Z,1.00
2022-08-23T02:52:00.441Z,1.02
2022-08-23T02:54:02.128Z,1.25
2022-08-23T02:56:04.714Z,0.40
2022-08-23T02:58:06.291Z,5.40
2022-08-23T03:00:10.277Z,0.45
2022-08-23T03:02:12.346Z,2.47
2022-08-23T03:04:14.136Z,0.22
2022-08-23T03:06:24.877Z,1.63
2022-08-23T03:08:27.592Z,1.05
2022-08-23T03:10:29.151Z,0.82
2022-08-23T03:12:31.067Z,1.13
2022-08-23T03:14:32.763Z,0.00
2022-08-23T03:16:35.119Z,4.47
2022-08-23T03:18:37.427Z,1.65
2022-08-23T03:20:42.277Z,23.25
2022-08-23T03:22:54.450Z,1.95
2022-08-23T03:24:56.587Z,1.58
2022-08-23T03:26:58.177Z,2.92
2022-08-23T03:28:59.780Z,3.30
2022-08-23T03:31:01.467Z,1.23
2022-08-23T03:33:03.444Z,1.60
2022-08-23T03:35:11.019Z,0.88
2022-08-23T03:37:18.130Z,3.63
2022-08-23T03:39:20.284Z,0.40
2022-08-23T03:41:22.251Z,2.47
2022-08-23T03:43:23.873Z,2.38
2022-08-23T03:45:25.587Z,4.68
2022-08-23T03:47:27.432Z,2.05
2022-08-23T03:49:28.968Z,1.08
2022-08-23T03:51:31.599Z,1.27
2022-08-23T03:53:33.142Z,1.30
2022-08-23T03:55:34.874Z,0.70
2022-08-23T03:57:44.370Z,0.40
2022-08-23T03:59:45.957Z,0.82
2022-08-23T04:01:47.911Z,0.20
2022-08-23T04:03:49.701Z,0.80
2022-08-23T04:05:51.283Z,1.48
2022-08-23T04:07:53.861Z,0.77
2022-08-23T04:09:55.634Z,0.45
2022-08-23T04:11:57.969Z,0.13
2022-08-23T04:13:59.637Z,0.32
2022-08-23T04:16:03.424Z,1.98
2022-08-23T04:18:05.536Z,0.32
2022-08-23T04:20:08.662Z,0.63
2022-08-23T04:22:14.848Z,0.93
2022-08-23T04:24:17.516Z,0.52
2022-08-23T04:26:19.114Z,3.17
2022-08-23T04:28:22.547Z,0.10
2022-08-23T04:30:24.288Z,1.25
2022-08-23T04:32:28.657Z,1.60
2022-08-23T04:34:30.345Z,0.57
2022-08-23T04:36:34.656Z,3.60
2022-08-23T04:38:36.311Z,1.33
2022-08-23T04:40:56.254Z,1.63
2022-08-23T04:45:00.554Z,1.25
2022-08-23T04:47:02.323Z,1.85
2022-08-23T04:49:03.917Z,2.75
2022-08-23T04:51:05.930Z,0.10
2022-08-23T04:53:08.227Z,1.92
2022-08-23T04:55:09.913Z,0.10
2022-08-23T04:57:11.444Z,0.93
2022-08-23T04:59:13.264Z,2.17
2022-08-23T05:01:16.297Z,0.80
2022-08-23T05:03:18.210Z,0.40
2022-08-23T05:05:20.873Z,1.35
2022-08-23T05:07:41.471Z,0.55
2022-08-23T05:09:43.593Z,2.55
2022-08-23T05:11:45.489Z,1.85
2022-08-23T05:13:47.334Z,1.00
2022-08-23T05:15:52.726Z,0.90
2022-08-23T05:17:54.439Z,4.97
2022-08-23T05:19:56.015Z,2.20
2022-08-23T05:21:57.579Z,1.38
2022-08-23T05:24:00.598Z,2.92
2022-08-23T05:26:06.244Z,2.22
2022-08-23T05:28:08.355Z,0.43
2022-08-23T05:30:15.239Z,2.35
2022-08-23T05:32:17.207Z,0.77
2022-08-23T05:34:22.436Z,0.95
2022-08-23T05:36:24.700Z,0.68
2022-08-23T05:38:26.541Z,2.92
2022-08-23T05:40:28.487Z,1.10
2022-08-23T05:42:30.082Z,0.38
2022-08-23T05:44:31.929Z,1.27
2022-08-23T05:46:38.895Z,0.75
2022-08-23T05:48:42.757Z,4.75
2022-08-23T05:50:44.373Z,0.50
2022-08-23T05:52:50.394Z,10.02
2022-08-23T05:54:52.599Z,0.30
2022-08-23T05:56:54.162Z,1.02
2022-08-23T05:59:01.126Z,0.75
2022-08-23T06:01:02.714Z,1.55
2022-08-23T06:03:04.425Z,0.73
2022-08-23T06:05:06.431Z,1.15
2022-08-23T06:07:09.935Z,0.65
2022-08-23T06:09:14.437Z,1.25
2022-08-23T06:11:18.929Z,0.63
2022-08-23T06:13:20.485Z,0.55
2022-08-23T06:15:22.161Z,3.13
2022-08-23T06:17:23.962Z,1.02
2022-08-23T06:19:25.546Z,3.58
2022-08-23T06:21:27.172Z,4.28
2022-08-23T06:23:29.225Z,0.93
2022-08-23T06:25:32.286Z,0.43
2022-08-23T06:27:33.870Z,1.40
2022-08-23T06:29:35.522Z,0.68
2022-08-23T06:31:50.055Z,1.02
2022-08-23T06:33:51.689Z,1.55
2022-08-23T06:36:06.796Z,1.73
2022-08-23T06:38:08.444Z,0.43
2022-08-23T06:40:10.351Z,0.52
2022-08-23T06:42:37.611Z,41.60
2022-08-23T06:44:36.057Z,47.42
2022-08-23T06:46:38.613Z,35.60
2022-08-23T06:48:40.738Z,39.90
2022-08-23T06:50:42.405Z,34.65
2022-08-23T06:52:50.203Z,31.65
2022-08-23T06:54:52.578Z,40.20
2022-08-23T06:56:55.738Z,34.88
2022-08-23T06:58:57.630Z,33.35
2022-08-23T07:01:42.063Z,31.42
2022-08-23T07:03:39.348Z,37.47
2022-08-23T07:05:40.897Z,34.95
2022-08-23T07:07:44.457Z,39.78
2022-08-23T07:09:46.355Z,38.35
2022-08-23T07:11:48.093Z,44.08
2022-08-23T07:13:49.650Z,39.40
2022-08-23T07:15:51.298Z,31.50
2022-08-23T07:17:52.954Z,38.65
2022-08-23T07:19:54.509Z,35.42
2022-08-23T07:21:57.667Z,38.47
2022-08-23T07:23:59.371Z,40.97
2022-08-23T07:26:06.830Z,41.22
2022-08-23T07:28:11.582Z,45.20
2022-08-23T07:30:14.458Z,41.60
2022-08-23T07:32:18.804Z,35.65
2022-08-23T07:34:21.112Z,40.15
2022-08-23T07:36:23.611Z,34.35
2022-08-23T07:38:25.194Z,38.08
2022-08-23T07:40:36.783Z,42.65
2022-08-23T07:42:40.761Z,43.90
2022-08-23T07:44:42.604Z,38.15
2022-08-23T07:46:45.193Z,37.97
2022-08-23T07:48:54.946Z,40.53
2022-08-23T07:53:01.120Z,29.88
2022-08-23T07:55:02.771Z,35.38
2022-08-23T07:57:04.415Z,34.08
2022-08-23T07:59:07.217Z,40.03
2022-08-23T08:01:12.582Z,31.00
2022-08-23T08:03:15.110Z,37.70
2022-08-23T08:05:21.412Z,39.20
2022-08-23T08:07:23.389Z,29.35
2022-08-23T08:09:24.925Z,33.40
2022-08-23T08:11:34.301Z,34.63
2022-08-23T08:13:41.655Z,28.25
2022-08-23T08:15:43.447Z,32.42
2022-08-23T08:17:48.089Z,29.40
2022-08-23T08:19:49.686Z,29.65
2022-08-23T08:21:51.437Z,30.92
2022-08-23T08:23:53.575Z,24.52
2022-08-23T08:26:02.654Z,29.60
2022-08-23T08:28:04.209Z,28.20
2022-08-23T08:30:07.099Z,31.60
2022-08-23T08:32:13.898Z,24.65
2022-08-23T08:34:15.856Z,22.75
2022-08-23T08:36:38.984Z,25.15
2022-08-23T08:38:48.074Z,24.15
2022-08-23T08:41:05.111Z,20.85
2022-08-23T08:43:27.718Z,25.88
2022-08-23T08:45:34.116Z,23.17
2022-08-23T08:47:46.230Z,18.63
2022-08-23T08:50:05.785Z,22.38
2022-08-23T08:52:16.205Z,17.58
2022-08-23T08:54:20.151Z,19.77
2022-08-23T08:56:25.254Z,20.48
2022-08-23T08:58:44.648Z,21.63
2022-08-23T09:00:47.014Z,23.77
2022-08-23T09:02:48.630Z,19.63
2022-08-23T09:04:50.420Z,20.30
2022-08-23T09:07:31.124Z,22.17
2022-08-23T09:09:37.028Z,21.90
2022-08-23T09:11:55.403Z,20.83
2022-08-23T09:14:38.026Z,22.08
2022-08-23T09:16:54.947Z,25.67
2022-08-23T09:18:57.009Z,31.90
2022-08-23T09:20:58.969Z,20.17
2022-08-23T09:23:08.875Z,23.20
2022-08-23T09:25:12.129Z,24.67
2022-08-23T09:27:13.682Z,23.42
2022-08-23T09:29:30.619Z,23.42
2022-08-23T09:31:40.114Z,25.35
2022-08-23T09:33:46.117Z,29.73
2022-08-23T09:36:06.760Z,26.50
2022-08-23T09:38:14.114Z,25.08
2022-08-23T09:40:38.841Z,24.23
2022-08-23T09:42:44.120Z,23.33
2022-08-23T09:44:45.750Z,27.15
2022-08-23T09:46:48.038Z,23.05
2022-08-23T09:48:49.728Z,21.77
2022-08-23T09:50:57.977Z,22.30
2022-08-23T09:53:06.221Z,28.40
2022-08-23T09:55:32.549Z,26.20
2022-08-23T09:57:34.571Z,25.30
2022-08-23T09:59:47.758Z,23.35
2022-08-23T10:01:51.805Z,26.95
2022-08-23T10:04:24.638Z,24.85
2022-08-23T10:06:32.107Z,22.45
2022-08-23T10:08:42.393Z,25.52
2022-08-23T10:10:50.953Z,27.00
2022-08-23T10:12:54.355Z,36.80
2022-08-23T10:14:57.494Z,23.95
2022-08-23T10:17:17.816Z,25.60
2022-08-23T10:19:44.254Z,25.90
2022-08-23T10:21:57.476Z,26.00
2022-08-23T10:24:01.737Z,25.98
2022-08-23T10:26:03.752Z,24.67
2022-08-23T10:28:50.224Z,40.45
2022-08-23T10:31:08.655Z,23.45
2022-08-23T10:33:18.609Z,23.65
2022-08-23T10:35:39.415Z,23.23
2022-08-23T10:38:00.724Z,23.00
2022-08-23T10:40:20.250Z,38.53
2022-08-23T10:42:34.490Z,27.63
2022-08-23T10:44:52.117Z,22.25
2022-08-23T10:47:28.201Z,21.00
2022-08-23T10:49:30.216Z,22.77
2022-08-23T10:51:40.843Z,24.73
2022-08-23T10:53:49.636Z,40.13
2022-08-23T10:56:06.113Z,22.05
2022-08-23T10:58:13.661Z,20.52
2022-08-23T11:00:26.706Z,31.98
2022-08-23T11:02:37.405Z,36.80
2022-08-23T11:04:51.260Z,19.50
2022-08-23T11:06:56.465Z,18.25
2022-08-23T11:09:10.312Z,18.42
2022-08-23T11:11:39.537Z,17.30
2022-08-23T11:13:52.335Z,21.77
2022-08-23T11:16:15.913Z,19.45
2022-08-23T11:18:31.276Z,26.23
2022-08-23T11:21:11.482Z,35.00
2022-08-23T11:23:15.714Z,21.77
2022-08-23T11:25:17.188Z,22.13
2022-08-23T11:27:40.551Z,23.55
2022-08-23T11:29:43.475Z,21.13
2022-08-23T11:32:02.186Z,19.63
2022-08-23T11:34:06.756Z,25.70
2022-08-23T11:36:08.484Z,33.70
2022-08-23T11:38:11.015Z,32.30
2022-08-23T11:40:17.532Z,23.42
2022-08-23T11:42:19.875Z,20.73
2022-08-23T11:44:28.433Z,18.95
2022-08-23T11:46:34.699Z,35.63
2022-08-23T11:48:37.349Z,23.25
2022-08-23T11:50:55.668Z,21.85
2022-08-23T11:53:18.460Z,28.45
2022-08-23T11:55:26.207Z,27.80
2022-08-23T11:57:52.248Z,20.77
2022-08-23T11:59:57.679Z,18.15
2022-08-23T12:01:59.487Z,19.65
2022-08-23T12:04:12.728Z,18.05
2022-08-23T12:06:39.290Z,21.45
2022-08-23T12:08:54.798Z,18.17
2022-08-23T12:10:56.333Z,22.45
2022-08-23T12:13:19.745Z,15.80
2022-08-23T12:15:59.885Z,19.42
2022-08-23T12:18:10.550Z,17.77
2022-08-23T12:20:17.122Z,38.33
2022-08-23T12:22:22.509Z,23.85
2022-08-23T12:24:42.136Z,18.83
2022-08-23T12:28:59.037Z,22.30
2022-08-23T12:31:14.847Z,21.58
2022-08-23T12:33:47.894Z,18.83
2022-08-23T12:35:58.763Z,20.88
2022-08-23T12:38:06.230Z,18.17
2022-08-23T12:40:13.962Z,18.70
2022-08-23T12:42:24.546Z,17.02
2022-08-23T12:44:28.200Z,15.93
2022-08-23T12:46:41.728Z,16.73
2022-08-23T12:48:46.520Z,18.90
2022-08-23T12:51:02.178Z,19.15
2022-08-23T12:53:10.482Z,20.27
2022-08-23T12:55:18.792Z,19.35
2022-08-23T12:57:29.957Z,22.25
2022-08-23T12:59:42.079Z,17.75
2022-08-23T13:01:44.697Z,16.75
2022-08-23T13:03:49.217Z,18.05
2022-08-23T13:05:56.878Z,20.17
2022-08-23T13:08:07.868Z,17.52
2022-08-23T13:10:10.298Z,17.05
2022-08-23T13:12:12.841Z,17.38
2022-08-23T13:14:37.399Z,14.07
2022-08-23T13:16:44.323Z,15.85
2022-08-23T13:18:46.089Z,15.70
2022-08-23T13:20:47.641Z,12.75
2022-08-23T13:23:17.407Z,14.70
2022-08-23T13:25:32.708Z,17.98
2022-08-23T13:27:38.553Z,13.18
2022-08-23T13:29:56.469Z,16.38
2022-08-23T13:32:03.213Z,16.08
2022-08-23T13:34:06.171Z,16.13
2022-08-23T13:36:21.388Z,17.08
2022-08-23T13:38:31.474Z,20.13
2022-08-23T13:40:40.595Z,15.15
2022-08-23T13:42:51.136Z,13.40
2022-08-23T13:44:53.482Z,15.48
2022-08-23T13:46:55.077Z,17.25
2022-08-23T13:49:06.243Z,30.45
2022-08-23T13:51:18.357Z,14.40
2022-08-23T13:53:20.777Z,15.45
2022-08-23T13:55:22.914Z,16.92
2022-08-23T13:57:27.389Z,13.45
2022-08-23T13:59:37.981Z,16.45
2022-08-23T14:01:39.615Z,14.75
2022-08-23T14:03:41.310Z,16.63
2022-08-23T14:05:42.951Z,15.90
2022-08-23T14:07:46.459Z,16.33
2022-08-23T14:09:50.976Z,14.80
2022-08-23T14:11:57.537Z,12.75
2022-08-23T14:13:59.119Z,15.38
2022-08-23T14:18:27.536Z,14.75
2022-08-23T14:20:33.751Z,17.52
2022-08-23T14:22:45.107Z,14.70
2022-08-23T14:24:46.687Z,15.50
2022-08-23T14:26:51.647Z,14.50
2022-08-23T14:28:54.279Z,17.52
2022-08-23T14:30:56.774Z,13.98
2022-08-23T14:32:59.737Z,14.00
2022-08-23T14:35:01.413Z,16.55
2022-08-23T14:39:24.854Z,15.27
2022-08-23T14:41:28.758Z,17.23
2022-08-23T14:43:30.700Z,14.57
2022-08-23T14:45:32.498Z,13.68
2022-08-23T14:47:35.470Z,18.85
2022-08-23T14:49:38.569Z,15.23
2022-08-23T14:51:44.795Z,17.73
2022-08-23T14:53:47.842Z,18.95
2022-08-23T14:56:12.333Z,18.48
2022-08-23T14:58:15.626Z,16.85
2022-08-23T15:00:17.791Z,14.32
2022-08-23T15:02:22.927Z,14.48
2022-08-23T15:04:25.256Z,16.90
2022-08-23T15:06:34.467Z,15.57
2022-08-23T15:08:36.708Z,15.02
2022-08-23T15:12:57.913Z,15.07
2022-08-23T15:13:14.040Z,14.20
2022-08-23T15:15:21.902Z,16.25
2022-08-23T15:17:28.770Z,16.70
2022-08-23T15:19:32.714Z,14.60
2022-08-23T15:21:34.620Z,15.13
2022-08-23T15:23:36.224Z,12.30
2022-08-23T15:25:40.868Z,14.10
2022-08-23T15:27:43.988Z,13.55
2022-08-23T15:29:45.878Z,13.48
2022-08-23T15:31:47.480Z,13.90
2022-08-23T15:33:50.394Z,14.77
2022-08-23T15:35:52.122Z,15.90
2022-08-23T15:37:56.064Z,16.50
2022-08-23T15:39:57.730Z,19.15
2022-08-23T15:41:59.338Z,19.95
2022-08-23T15:44:01.664Z,17.23
2022-08-23T15:46:05.837Z,22.45
2022-08-23T15:48:18.424Z,16.63
2022-08-23T15:50:23.959Z,16.65
2022-08-23T15:52:26.476Z,16.83
2022-08-23T15:54:28.025Z,32.75
2022-08-23T15:56:35.630Z,16.20
2022-08-23T15:58:37.937Z,15.88
2022-08-23T16:00:40.877Z,11.23
2022-08-23T16:03:06.492Z,13.35
2022-08-23T16:05:04.911Z,10.48
2022-08-23T16:07:14.007Z,9.43
2022-08-23T16:09:20.989Z,10.70
2022-08-23T16:11:23.021Z,11.68
2022-08-23T16:13:25.594Z,9.45
2022-08-23T16:15:27.183Z,10.48
2022-08-23T16:17:28.750Z,12.95
2022-08-23T16:19:31.142Z,8.30
2022-08-23T16:21:32.920Z,13.48
2022-08-23T16:23:34.470Z,10.90
2022-08-23T16:25:36.147Z,11.68
2022-08-23T16:27:38.022Z,22.50
2022-08-23T16:29:40.995Z,12.57
2022-08-23T16:31:43.729Z,12.38
2022-08-23T16:33:47.789Z,10.85
2022-08-23T16:35:49.333Z,10.93
2022-08-23T16:37:51.051Z,14.05
2022-08-23T16:39:52.904Z,12.13
2022-08-23T16:41:55.339Z,10.25
2022-08-23T16:43:56.909Z,10.20
2022-08-23T16:45:58.580Z,12.05
2022-08-23T16:48:00.198Z,13.02
2022-08-23T16:50:01.728Z,12.95
2022-08-23T16:52:03.695Z,17.25
2022-08-23T16:54:05.840Z,20.58
2022-08-23T16:56:07.725Z,14.98
2022-08-23T16:58:09.714Z,13.48
2022-08-23T17:00:13.263Z,82.53
2022-08-23T17:02:30.655Z,27.50
2022-08-23T17:04:32.909Z,42.80
2022-08-23T17:06:34.523Z,30.35
2022-08-23T17:08:36.701Z,22.67
2022-08-23T17:10:38.334Z,28.85
2022-08-23T17:12:47.737Z,63.50
2022-08-23T17:14:51.328Z,54.45
2022-08-23T17:16:53.038Z,47.83
2022-08-23T17:18:57.289Z,41.95
2022-08-23T17:20:58.967Z,30.10
2022-08-23T17:23:00.734Z,46.42
2022-08-23T17:25:08.033Z,27.55
2022-08-23T17:27:09.692Z,28.52
2022-08-23T17:29:20.782Z,27.05
2022-08-23T17:31:23.393Z,20.65
2022-08-23T17:33:24.999Z,33.85
2022-08-23T17:35:34.199Z,25.90
2022-08-23T17:37:37.504Z,33.38
2022-08-23T17:39:39.606Z,32.92
2022-08-23T17:41:45.318Z,37.17
2022-08-23T17:43:47.908Z,31.50
2022-08-23T17:45:51.107Z,29.02
2022-08-23T17:47:53.040Z,31.77
2022-08-23T17:49:56.256Z,36.10
2022-08-23T17:51:57.882Z,56.67
2022-08-23T17:53:59.482Z,39.53
2022-08-23T17:56:02.075Z,16.77
2022-08-23T17:58:07.594Z,15.10
2022-08-23T18:00:09.851Z,16.73
2022-08-23T18:02:11.426Z,19.17
2022-08-23T18:04:13.107Z,33.88
2022-08-23T18:06:17.233Z,47.50
2022-08-23T18:08:19.408Z,46.47
2022-08-23T18:10:21.481Z,48.22
2022-08-23T18:12:23.270Z,67.40
2022-08-23T18:14:25.146Z,42.83
2022-08-23T18:16:34.519Z,35.45
2022-08-23T18:18:37.926Z,34.42
2022-08-23T18:20:39.457Z,42.25
2022-08-23T18:22:41.069Z,42.17
2022-08-23T18:24:42.676Z,34.03
2022-08-23T18:27:03.134Z,48.67
2022-08-23T18:29:06.787Z,42.45
2022-08-23T18:31:08.374Z,42.35
2022-08-23T18:33:12.505Z,50.42
2022-08-23T18:35:14.605Z,49.92
2022-08-23T18:37:21.710Z,74.65
2022-08-23T18:39:31.307Z,98.03
2022-08-23T18:41:33.654Z,103.68
2022-08-23T18:43:37.269Z,59.17
2022-08-23T18:45:39.435Z,53.03
2022-08-23T18:47:41.059Z,49.35
2022-08-23T18:49:42.765Z,39.80
2022-08-23T18:51:44.364Z,43.72
2022-08-23T18:53:46.520Z,51.33
2022-08-23T18:55:49.994Z,52.05
2022-08-23T18:57:51.629Z,49.88
2022-08-23T18:59:53.193Z,50.63
2022-08-23T19:01:55.248Z,55.92
2022-08-23T19:03:58.571Z,48.67
2022-08-23T19:06:00.161Z,52.28
2022-08-23T19:08:03.404Z,58.20
2022-08-23T19:10:05.456Z,54.50
2022-08-23T19:12:07.958Z,56.90
2022-08-23T19:14:10.823Z,53.70
2022-08-23T19:16:13.825Z,49.90
2022-08-23T19:18:16.180Z,48.58
2022-08-23T19:20:19.359Z,50.47
2022-08-23T19:22:21.011Z,41.72
2022-08-23T19:24:24.138Z,45.90
2022-08-23T19:26:32.152Z,52.88
2022-08-23T19:28:33.732Z,51.67
2022-08-23T19:30:35.370Z,62.30
2022-08-23T19:32:39.657Z,57.67
2022-08-23T19:34:42.248Z,55.22
2022-08-23T19:36:46.839Z,62.47
2022-08-23T19:38:50.896Z,56.60
2022-08-23T19:40:52.453Z,56.88
2022-08-23T19:42:54.938Z,61.28
2022-08-23T19:44:56.530Z,58.95
2022-08-23T19:46:58.368Z,63.20
2022-08-23T19:49:00.203Z,62.97
2022-08-23T19:51:01.866Z,60.70
2022-08-23T19:53:04.113Z,61.53
2022-08-23T19:55:07.409Z,62.15
2022-08-23T19:57:10.089Z,58.42
2022-08-23T19:59:14.563Z,68.13
2022-08-23T20:01:16.253Z,62.50
2022-08-23T20:03:17.905Z,64.35
2022-08-23T20:05:20.092Z,60.58
2022-08-23T20:07:21.755Z,66.28
2022-08-23T20:09:25.681Z,69.25
2022-08-23T20:11:32.164Z,69.00
2022-08-23T20:13:34.107Z,67.97
2022-08-23T20:15:38.692Z,72.68
2022-08-23T20:17:41.095Z,70.60
2022-08-23T20:19:43.111Z,77.32
2022-08-23T20:21:44.741Z,77.30
2022-08-23T20:24:01.228Z,73.43
2022-08-23T20:26:02.808Z,84.97
2022-08-23T20:28:08.216Z,85.35
2022-08-23T20:30:11.825Z,86.38
2022-08-23T20:32:13.400Z,87.85
2022-08-23T20:34:15.167Z,91.13
2022-08-23T20:36:16.909Z,86.55
2022-08-23T20:38:31.355Z,101.57
2022-08-23T20:40:35.627Z,92.82
2022-08-23T20:42:38.471Z,101.97
2022-08-23T20:44:40.044Z,97.00
2022-08-23T20:46:41.756Z,106.13
2022-08-23T20:48:43.348Z,109.57
2022-08-23T20:50:45.080Z,108.88
2022-08-23T20:52:46.908Z,112.65
2022-08-23T20:54:48.630Z,110.88
2022-08-23T20:56:51.618Z,115.30
2022-08-23T20:58:54.202Z,122.25
2022-08-23T21:00:56.164Z,124.30
2022-08-23T21:02:58.179Z,121.38
2022-08-23T21:04:59.764Z,128.07
2022-08-23T21:07:01.311Z,130.15
2022-08-23T21:09:03.930Z,135.27
2022-08-23T21:11:05.566Z,139.43
2022-08-23T21:13:10.416Z,136.60
2022-08-23T21:15:12.594Z,129.75
2022-08-23T21:17:14.175Z,132.05
2022-08-23T21:19:15.876Z,147.27
2022-08-23T21:21:21.436Z,136.93
2022-08-23T21:23:23.758Z,134.30
2022-08-23T21:25:25.345Z,133.73
2022-08-23T21:27:27.630Z,135.38
2022-08-23T21:29:29.200Z,136.32
2022-08-23T21:31:31.714Z,137.07
2022-08-23T21:33:37.900Z,136.68
2022-08-23T21:35:41.498Z,134.50
2022-08-23T21:37:43.187Z,133.80
2022-08-23T21:39:44.746Z,147.80
2022-08-23T21:41:51.051Z,130.48
2022-08-23T21:43:52.595Z,138.90
2022-08-23T21:45:54.343Z,139.77
2022-08-23T21:47:55.968Z,132.90
2022-08-23T21:49:57.657Z,135.57
2022-08-23T21:51:59.285Z,120.78
2022-08-23T21:54:00.871Z,121.75
2022-08-23T21:56:02.522Z,121.50
2022-08-23T21:58:04.096Z,116.60
2022-08-23T22:00:12.482Z,114.50
2022-08-23T22:02:14.102Z,116.65
2022-08-23T22:04:15.970Z,111.03
2022-08-23T22:06:17.901Z,109.18
2022-08-23T22:08:19.462Z,106.88
2022-08-23T22:10:23.714Z,109.47
2022-08-23T22:12:25.359Z,103.32
2022-08-23T22:14:29.659Z,111.93
2022-08-23T22:16:33.181Z,113.05
2022-08-23T22:18:35.382Z,106.43
2022-08-23T22:20:37.029Z,113.32
2022-08-23T22:22:38.663Z,106.32
2022-08-23T22:24:41.682Z,99.82
2022-08-23T22:26:43.403Z,106.85
2022-08-23T22:28:45.099Z,107.10
2022-08-23T22:30:46.738Z,97.38
2022-08-23T22:32:48.636Z,101.05
2022-08-23T22:34:50.235Z,102.25
2022-08-23T22:36:52.380Z,97.07
2022-08-23T22:38:55.267Z,99.07
2022-08-23T22:40:56.817Z,93.53
2022-08-23T22:42:58.384Z,95.07
2022-08-23T22:45:00.689Z,104.68
2022-08-23T22:47:02.273Z,100.90
2022-08-23T22:49:04.250Z,103.68
2022-08-23T22:51:12.609Z,100.20
2022-08-23T22:53:14.629Z,100.22
2022-08-23T22:55:16.202Z,101.57
2022-08-23T22:57:17.813Z,97.88
2022-08-23T22:59:22.486Z,95.32
2022-08-23T23:01:36.401Z,95.13
2022-08-23T23:03:38.119Z,88.40
2022-08-23T23:05:42.930Z,86.53
2022-08-23T23:08:02.851Z,82.47
2022-08-23T23:10:05.654Z,75.82
2022-08-23T23:12:07.411Z,75.82
2022-08-23T23:14:09.642Z,77.05
2022-08-23T23:16:16.474Z,75.18
2022-08-23T23:18:19.188Z,82.47
2022-08-23T23:20:39.928Z,75.78
2022-08-23T23:22:43.928Z,81.95
2022-08-23T23:24:45.574Z,77.07
2022-08-23T23:26:47.751Z,75.03
2022-08-23T23:28:49.482Z,80.82
2022-08-23T23:30:53.115Z,74.47
2022-08-23T23:32:55.265Z,69.68
2022-08-23T23:34:57.143Z,79.53
2022-08-23T23:37:02.672Z,79.43
2022-08-23T23:39:06.329Z,87.03
2022-08-23T23:41:08.830Z,83.90
2022-08-23T23:43:10.639Z,85.03
2022-08-23T23:45:15.372Z,85.32
2022-08-23T23:47:17.845Z,86.43
2022-08-23T23:49:25.698Z,84.82
2022-08-23T23:51:34.274Z,87.75
2022-08-23T23:53:37.441Z,79.88
2022-08-23T23:55:39.077Z,87.75
2022-08-23T23:57:40.933Z,84.78
2022-08-23T23:59:42.542Z,82.57
